Time;durP1;ratioP1;P1;durP2;ratioP2;P2;SDS_P1;SDS_P2;PMS_P1;PMS_P2;Temp;Humidity;BMP_temperature;BMP_pressure;BME280_temperature;BME280_humidity;BME280_pressure;Samples;Min_cycle;Max_cycle;Signal;HPM_P1;HPM_P2
2020/12/22 00:00:26;;;;;;;14.47;13.77;;;11.00;89.80;;;;;;4974470;28;21091;-77
2020/12/22 00:02:52;;;;;;;14.30;13.60;;;11.10;89.90;;;;;;4973911;28;20454;-77
2020/12/22 00:05:18;;;;;;;14.27;13.47;;;11.10;89.80;;;;;;4973581;28;20479;-77
2020/12/22 00:07:45;;;;;;;14.93;14.23;;;11.10;90.10;;;;;;4973850;28;20464;-77
2020/12/22 00:10:14;;;;;;;14.63;13.90;;;11.20;89.90;;;;;;4973920;28;20463;-77
2020/12/22 00:12:40;;;;;;;13.90;13.20;;;11.20;89.90;;;;;;4973538;28;20991;-77
2020/12/22 00:15:08;;;;;;;13.80;13.20;;;11.20;89.90;;;;;;4974135;28;20517;-77
2020/12/22 00:17:35;;;;;;;13.73;13.13;;;11.20;89.90;;;;;;4973980;28;20463;-77
2020/12/22 00:20:01;;;;;;;13.10;12.50;;;11.10;90.30;;;;;;4974452;28;20459;-77
2020/12/22 00:22:28;;;;;;;13.70;13.10;;;11.10;90.40;;;;;;4973691;28;20453;-77
2020/12/22 00:24:55;;;;;;;14.23;13.53;;;11.10;90.50;;;;;;4973601;28;20546;-77
2020/12/22 00:27:21;;;;;;;13.50;12.70;;;11.10;90.30;;;;;;4973991;28;20474;-77
2020/12/22 00:29:48;;;;;;;14.00;13.40;;;11.10;90.40;;;;;;4974374;28;20455;-77
2020/12/22 00:32:14;;;;;;;13.70;13.10;;;11.20;90.10;;;;;;4974035;28;20454;-78
2020/12/22 00:34:40;;;;;;;13.90;13.30;;;11.20;90.30;;;;;;4973958;28;20455;-78
2020/12/22 00:37:07;;;;;;;13.30;12.70;;;11.20;90.20;;;;;;4973039;28;20484;-77
2020/12/22 00:39:33;;;;;;;13.00;12.40;;;11.20;90.20;;;;;;4976535;28;20454;-78
2020/12/22 00:42:01;;;;;;;13.97;13.23;;;11.20;90.20;;;;;;4977268;28;20456;-77
2020/12/22 00:44:27;;;;;;;13.70;13.00;;;11.30;90.10;;;;;;4977833;28;20454;-78
2020/12/22 00:46:54;;;;;;;13.17;12.53;;;11.30;90.20;;;;;;4977171;28;20817;-78
2020/12/22 00:49:20;;;;;;;13.10;12.50;;;11.30;90.00;;;;;;4977541;28;20458;-78
2020/12/22 00:51:47;;;;;;;13.50;12.80;;;11.30;89.80;;;;;;4977495;28;20512;-78
2020/12/22 00:54:14;;;;;;;13.20;12.60;;;11.30;90.30;;;;;;4977361;28;20478;-78
2020/12/22 00:56:40;;;;;;;12.60;12.10;;;11.30;90.20;;;;;;4977101;28;20477;-78
2020/12/22 00:59:08;;;;;;;13.30;12.70;;;11.40;89.90;;;;;;4977537;28;20493;-78
2020/12/22 01:01:34;;;;;;;13.20;12.60;;;11.40;89.90;;;;;;4977577;28;20458;-78
2020/12/22 01:04:01;;;;;;;13.10;12.50;;;11.40;90.10;;;;;;4977275;28;20493;-78
2020/12/22 01:06:27;;;;;;;13.60;12.73;;;11.50;89.80;;;;;;4976757;28;20466;-77
2020/12/22 01:08:54;;;;;;;13.03;12.43;;;11.50;89.80;;;;;;4977159;28;20508;-77
2020/12/22 01:11:22;;;;;;;12.40;11.90;;;11.60;89.80;;;;;;4977152;28;20458;-77
2020/12/22 01:13:49;;;;;;;12.43;11.87;;;11.60;89.70;;;;;;4977054;28;20484;-77
2020/12/22 01:16:19;;;;;;;13.00;12.30;;;11.60;89.70;;;;;;4976432;28;20482;-77
2020/12/22 01:18:45;;;;;;;12.43;11.83;;;11.60;89.80;;;;;;4977011;28;20535;-77
2020/12/22 01:21:18;;;;;;;12.33;11.83;;;11.70;89.60;;;;;;4976930;28;20463;-77
2020/12/22 01:23:44;;;;;;;12.03;11.53;;;11.80;89.50;;;;;;4977041;28;20458;-77
2020/12/22 01:26:11;;;;;;;12.60;12.10;;;11.70;89.60;;;;;;4976497;28;20840;-77
2020/12/22 01:28:37;;;;;;;12.40;11.80;;;11.80;89.40;;;;;;4976744;28;20966;-77
2020/12/22 01:31:03;;;;;;;12.53;11.93;;;11.80;89.40;;;;;;4976578;28;20458;-77
2020/12/22 01:33:32;;;;;;;12.60;12.10;;;11.80;89.20;;;;;;4976605;28;20483;-77
2020/12/22 01:35:58;;;;;;;12.50;11.90;;;11.80;89.30;;;;;;4976459;28;20483;-77
2020/12/22 01:38:25;;;;;;;12.80;12.30;;;11.80;89.10;;;;;;4976008;28;20963;-77
2020/12/22 01:40:51;;;;;;;13.10;12.50;;;11.90;88.90;;;;;;4976638;28;20466;-77
2020/12/22 01:43:17;;;;;;;13.13;12.40;;;11.90;89.00;;;;;;4976382;28;20450;-77
2020/12/22 01:45:44;;;;;;;13.03;12.53;;;11.90;88.90;;;;;;4976239;28;20483;-77
2020/12/22 01:48:11;;;;;;;12.70;12.20;;;11.90;88.80;;;;;;4976531;28;20458;-77
2020/12/22 01:50:38;;;;;;;12.90;12.40;;;11.90;88.80;;;;;;4975177;28;20450;-77
2020/12/22 01:53:04;;;;;;;12.83;12.23;;;11.80;89.20;;;;;;4975785;28;20998;-77
2020/12/22 01:55:31;;;;;;;13.20;12.60;;;11.80;89.20;;;;;;4975939;28;20471;-77
2020/12/22 01:57:57;;;;;;;12.70;12.20;;;11.80;89.50;;;;;;4976540;28;20502;-77
2020/12/22 02:00:24;;;;;;;12.50;12.00;;;11.80;89.60;;;;;;4975931;28;20459;-77
2020/12/22 02:02:50;;;;;;;13.00;12.50;;;11.90;89.20;;;;;;4976226;28;20933;-77
2020/12/22 02:05:16;;;;;;;12.77;12.27;;;11.90;89.00;;;;;;4976179;28;20458;-77
2020/12/22 02:07:44;;;;;;;12.63;12.13;;;11.90;88.80;;;;;;4975813;28;20860;-77
2020/12/22 02:10:10;;;;;;;12.50;12.00;;;11.90;88.90;;;;;;4976008;28;20455;-77
2020/12/22 02:12:40;;;;;;;12.57;12.07;;;11.90;88.90;;;;;;4975898;28;20486;-77
2020/12/22 02:15:07;;;;;;;12.80;12.30;;;11.90;88.80;;;;;;4976237;28;20461;-77
2020/12/22 02:17:34;;;;;;;12.90;12.40;;;11.90;88.80;;;;;;4976416;28;20450;-77
2020/12/22 02:20:00;;;;;;;12.60;12.10;;;11.90;89.00;;;;;;4976052;28;20822;-77
2020/12/22 02:22:28;;;;;;;12.50;12.00;;;12.00;88.70;;;;;;4975929;28;20490;-77
2020/12/22 02:24:54;;;;;;;12.70;12.00;;;12.00;88.40;;;;;;4975930;28;20455;-77
2020/12/22 02:27:20;;;;;;;12.07;11.57;;;12.00;88.70;;;;;;4975317;28;20521;-77
2020/12/22 02:29:47;;;;;;;12.40;11.90;;;12.00;88.60;;;;;;4975857;28;20517;-77
2020/12/22 02:32:13;;;;;;;12.60;12.10;;;12.00;88.70;;;;;;4975660;28;20455;-77
2020/12/22 02:34:39;;;;;;;12.30;11.80;;;12.10;88.60;;;;;;4975188;28;20504;-77
2020/12/22 02:37:06;;;;;;;12.50;12.00;;;12.10;88.50;;;;;;4975138;28;20471;-77
2020/12/22 02:39:33;;;;;;;12.30;11.83;;;12.20;88.30;;;;;;4974810;28;20460;-77
2020/12/22 02:41:59;;;;;;;12.50;11.90;;;12.20;88.20;;;;;;4975351;28;20459;-77
2020/12/22 02:44:27;;;;;;;12.40;11.90;;;12.20;88.10;;;;;;4975552;28;20450;-77
2020/12/22 02:46:53;;;;;;;12.20;11.70;;;12.20;88.00;;;;;;4975255;28;20479;-77
2020/12/22 02:49:19;;;;;;;12.80;12.30;;;12.20;88.00;;;;;;4974954;28;20480;-77
2020/12/22 02:51:46;;;;;;;12.73;12.23;;;12.20;87.90;;;;;;4975354;28;20463;-78
2020/12/22 02:54:12;;;;;;;12.07;11.60;;;12.20;87.90;;;;;;4975381;28;20565;-78
2020/12/22 02:56:39;;;;;;;12.50;12.00;;;12.20;88.00;;;;;;4975068;28;21000;-78
2020/12/22 02:59:06;;;;;;;12.40;11.90;;;12.20;88.10;;;;;;4974734;28;20459;-78
2020/12/22 03:01:39;;;;;;;12.90;12.10;;;12.30;88.00;;;;;;4974693;28;20457;-78
2020/12/22 03:04:05;;;;;;;12.40;11.90;;;12.30;88.00;;;;;;4977619;28;20957;-78
2020/12/22 03:06:31;;;;;;;12.83;12.33;;;12.30;88.10;;;;;;4979423;28;20473;-78
2020/12/22 03:08:58;;;;;;;12.50;12.00;;;12.30;88.00;;;;;;4976988;28;20459;-78
2020/12/22 03:11:24;;;;;;;12.77;12.27;;;12.30;88.20;;;;;;4975330;28;20461;-78
2020/12/22 03:13:51;;;;;;;13.60;12.50;;;12.30;87.90;;;;;;4974868;28;20980;-78
2020/12/22 03:16:18;;;;;;;12.47;11.87;;;12.30;88.20;;;;;;4975093;28;20474;-78
2020/12/22 03:18:44;;;;;;;12.30;11.70;;;12.40;88.20;;;;;;4974479;28;20463;-77
2020/12/22 03:21:14;;;;;;;13.40;12.80;;;12.30;88.30;;;;;;4974727;28;20466;-77
2020/12/22 03:23:41;;;;;;;12.53;12.03;;;12.20;88.50;;;;;;4974685;28;21010;-77
2020/12/22 03:26:07;;;;;;;13.40;12.90;;;12.20;88.80;;;;;;4974603;28;20471;-77
2020/12/22 03:28:33;;;;;;;13.43;12.93;;;12.20;88.70;;;;;;4974385;28;20860;-77
2020/12/22 03:31:00;;;;;;;13.50;13.00;;;12.20;88.70;;;;;;4974565;28;20450;-77
2020/12/22 03:33:27;;;;;;;13.40;12.90;;;12.30;88.50;;;;;;4974565;28;21081;-77
2020/12/22 03:35:53;;;;;;;14.23;13.63;;;12.30;88.30;;;;;;4974276;28;20482;-77
2020/12/22 03:38:19;;;;;;;13.80;13.30;;;12.30;88.40;;;;;;4973953;28;20467;-77
2020/12/22 03:40:46;;;;;;;14.10;13.60;;;12.40;88.30;;;;;;4973946;28;20521;-77
2020/12/22 03:43:13;;;;;;;13.27;12.77;;;12.40;88.10;;;;;;4973956;28;20457;-77
2020/12/22 03:45:42;;;;;;;13.50;13.00;;;12.40;88.20;;;;;;4973969;28;20479;-77
2020/12/22 03:48:09;;;;;;;12.67;12.17;;;12.30;88.50;;;;;;4974277;28;20454;-77
2020/12/22 03:50:36;;;;;;;13.80;13.30;;;12.40;88.50;;;;;;4974055;28;20465;-77
2020/12/22 03:53:02;;;;;;;12.93;12.43;;;12.40;88.20;;;;;;4974315;28;20483;-77
2020/12/22 03:55:29;;;;;;;13.67;13.00;;;12.40;88.00;;;;;;4974509;28;20482;-77
2020/12/22 03:57:55;;;;;;;13.50;13.00;;;12.40;88.20;;;;;;4974317;28;20550;-77
2020/12/22 04:00:21;;;;;;;13.20;12.60;;;12.40;88.00;;;;;;4974086;28;20463;-77
2020/12/22 04:02:48;;;;;;;12.77;12.27;;;12.40;88.10;;;;;;4973883;28;20448;-77
2020/12/22 04:05:15;;;;;;;13.70;13.20;;;12.50;87.90;;;;;;4973745;28;20455;-77
2020/12/22 04:07:41;;;;;;;13.13;12.63;;;12.50;87.80;;;;;;4974048;28;20455;-77
2020/12/22 04:10:08;;;;;;;13.40;12.90;;;12.40;87.80;;;;;;4974168;28;20811;-77
2020/12/22 04:12:36;;;;;;;13.00;12.50;;;12.50;87.90;;;;;;4974572;28;20971;-77
2020/12/22 04:15:03;;;;;;;13.00;12.50;;;12.50;87.60;;;;;;4974058;28;20450;-77
2020/12/22 04:17:29;;;;;;;13.60;13.10;;;12.60;87.50;;;;;;4973782;28;20948;-77
2020/12/22 04:19:55;;;;;;;13.40;12.90;;;12.50;87.90;;;;;;4973939;28;20455;-77
2020/12/22 04:22:23;;;;;;;13.40;12.83;;;12.50;87.80;;;;;;4973610;28;20538;-77
2020/12/22 04:24:49;;;;;;;13.83;13.27;;;12.50;87.80;;;;;;4973467;28;20447;-77
2020/12/22 04:27:15;;;;;;;13.37;12.87;;;12.50;87.80;;;;;;4973765;28;20467;-77
2020/12/22 04:29:41;;;;;;;13.30;12.80;;;12.60;87.50;;;;;;4973756;28;20572;-77
2020/12/22 04:32:08;;;;;;;13.60;13.00;;;12.60;87.50;;;;;;4973893;28;20599;-77
2020/12/22 04:34:34;;;;;;;13.23;12.63;;;12.60;87.70;;;;;;4973381;28;20908;-77
2020/12/22 04:37:01;;;;;;;13.30;12.80;;;12.60;87.90;;;;;;4973431;28;21008;-77
2020/12/22 04:39:28;;;;;;;14.03;13.43;;;12.70;87.70;;;;;;4973916;28;20463;-77
2020/12/22 04:41:58;;;;;;;13.50;13.00;;;12.70;87.60;;;;;;4973538;28;20461;-77
2020/12/22 04:44:25;;;;;;;13.60;13.10;;;12.60;87.90;;;;;;4973532;28;20455;-77
2020/12/22 04:46:53;;;;;;;13.60;13.10;;;12.60;88.20;;;;;;4973543;28;20483;-77
2020/12/22 04:49:22;;;;;;;14.30;13.70;;;12.60;88.30;;;;;;4973818;28;20458;-77
2020/12/22 04:51:50;;;;;;;13.60;13.00;;;12.50;88.50;;;;;;4973158;28;20454;-77
2020/12/22 04:54:18;;;;;;;14.40;13.50;;;12.60;88.50;;;;;;4973326;28;20992;-77
2020/12/22 04:56:46;;;;;;;14.13;13.53;;;12.70;88.20;;;;;;4973350;28;20518;-77
2020/12/22 04:59:14;;;;;;;12.90;12.40;;;12.70;88.30;;;;;;4973514;28;20462;-77
2020/12/22 05:01:41;;;;;;;12.90;12.40;;;12.70;88.20;;;;;;4973336;28;20467;-77
2020/12/22 05:04:11;;;;;;;13.87;13.27;;;12.70;88.30;;;;;;4973548;28;21011;-77
2020/12/22 05:06:37;;;;;;;12.33;11.73;;;12.70;88.20;;;;;;4973281;28;21019;-77
2020/12/22 05:09:04;;;;;;;12.70;12.20;;;12.70;88.60;;;;;;4973535;28;20478;-77
2020/12/22 05:11:34;;;;;;;12.60;12.10;;;12.70;88.60;;;;;;4973611;28;20940;-77
2020/12/22 05:14:01;;;;;;;12.50;12.00;;;12.70;88.60;;;;;;4973285;28;20980;-77
2020/12/22 05:16:27;;;;;;;13.10;12.60;;;12.60;88.70;;;;;;4973616;28;20482;-77
2020/12/22 05:18:55;;;;;;;13.10;12.50;;;12.60;88.80;;;;;;4975466;28;20463;-78
2020/12/22 05:21:22;;;;;;;12.57;12.07;;;12.60;88.70;;;;;;4977123;28;20465;-78
2020/12/22 05:23:49;;;;;;;12.80;12.30;;;12.70;88.70;;;;;;4975731;28;20459;-78
2020/12/22 05:26:18;;;;;;;13.27;12.77;;;12.70;88.80;;;;;;4977220;28;20478;-78
2020/12/22 05:28:44;;;;;;;13.17;12.67;;;12.60;88.90;;;;;;4978906;28;20455;-78
2020/12/22 05:31:16;;;;;;;13.30;12.80;;;12.60;88.70;;;;;;4979704;28;20485;-78
2020/12/22 05:33:43;;;;;;;13.07;12.57;;;12.70;88.60;;;;;;4979279;28;20485;-78
2020/12/22 05:36:10;;;;;;;12.90;12.40;;;12.70;88.90;;;;;;4979042;28;20478;-78
2020/12/22 05:38:37;;;;;;;13.00;12.50;;;12.70;88.70;;;;;;4978704;28;20466;-78
2020/12/22 05:41:05;;;;;;;13.60;13.10;;;12.70;88.60;;;;;;4978054;28;20464;-78
2020/12/22 05:43:37;;;;;;;13.07;12.53;;;12.80;88.00;;;;;;4978306;28;20457;-78
2020/12/22 05:46:04;;;;;;;13.33;12.80;;;12.80;87.90;;;;;;4981097;28;20475;-78
2020/12/22 05:48:32;;;;;;;13.00;12.50;;;12.90;87.90;;;;;;4983432;28;20455;-79
2020/12/22 05:51:02;;;;;;;13.23;12.73;;;12.90;87.80;;;;;;4961332;29;20811;-78
2020/12/22 05:53:29;;;;;;;11.40;11.00;;;12.90;87.90;;;;;;4959176;29;20590;-78
2020/12/22 05:55:55;;;;;;;13.60;12.90;;;12.90;88.00;;;;;;4957495;28;20533;-78
2020/12/22 05:58:29;;;;;;;13.27;12.77;;;12.90;87.90;;;;;;4961085;28;20498;-77
2020/12/22 06:00:56;;;;;;;12.27;11.80;;;13.00;87.60;;;;;;4976826;28;20519;-77
2020/12/22 06:03:23;;;;;;;13.40;12.90;;;13.00;87.50;;;;;;4976933;28;20446;-77
2020/12/22 06:05:51;;;;;;;12.80;12.30;;;13.00;87.60;;;;;;4975869;28;20471;-77
2020/12/22 06:08:17;;;;;;;12.90;12.40;;;13.10;87.50;;;;;;4976432;28;20455;-77
2020/12/22 06:10:44;;;;;;;12.83;12.27;;;13.10;87.50;;;;;;4977615;28;20501;-77
2020/12/22 06:13:12;;;;;;;12.90;12.13;;;13.10;87.40;;;;;;4977269;28;20561;-77
2020/12/22 06:15:39;;;;;;;12.53;12.03;;;13.10;87.40;;;;;;4976901;28;20561;-77
2020/12/22 06:18:06;;;;;;;13.10;12.60;;;13.10;87.30;;;;;;4976152;28;20459;-77
2020/12/22 06:20:34;;;;;;;11.73;11.33;;;13.20;87.30;;;;;;4975970;28;20514;-77
2020/12/22 06:23:02;;;;;;;12.93;12.43;;;13.20;87.20;;;;;;4975999;28;20466;-77
2020/12/22 06:25:29;;;;;;;13.40;12.90;;;13.30;87.00;;;;;;4975383;28;20999;-78
2020/12/22 06:27:56;;;;;;;13.10;12.60;;;13.30;86.90;;;;;;4976000;28;20458;-77
2020/12/22 06:30:35;;;;;;;12.30;11.83;;;13.20;87.10;;;;;;4975733;28;21006;-78
2020/12/22 06:33:18;;;;;;;13.23;12.73;;;13.30;86.90;;;;;;4974750;28;20462;-77
2020/12/22 06:36:00;;;;;;;13.10;12.60;;;13.30;87.10;;;;;;4975377;28;20480;-77
2020/12/22 06:38:58;;;;;;;12.40;11.80;;;13.30;87.10;;;;;;4956076;29;20533;-77
2020/12/22 06:41:44;;;;;;;12.77;12.17;;;13.30;87.20;;;;;;4962254;28;20543;-78
2020/12/22 06:44:27;;;;;;;12.20;11.70;;;13.40;87.10;;;;;;4985280;23;20810;-78
2020/12/22 06:46:56;;;;;;;14.00;13.27;;;13.30;87.20;;;;;;4994363;28;21016;-78
2020/12/22 06:49:51;;;;;;;13.33;12.83;;;13.30;87.40;;;;;;4994656;28;20461;-77
2020/12/22 06:52:28;;;;;;;12.60;12.10;;;13.30;87.20;;;;;;4994738;28;20449;-77
2020/12/22 06:54:55;;;;;;;12.33;11.83;;;13.30;87.40;;;;;;4994667;28;20484;-77
2020/12/22 06:57:42;;;;;;;13.07;12.57;;;13.30;87.10;;;;;;4994314;28;20488;-77
2020/12/22 07:00:09;;;;;;;12.43;11.93;;;13.40;86.90;;;;;;4994722;28;20516;-77
2020/12/22 07:02:36;;;;;;;13.60;13.00;;;13.40;86.70;;;;;;4994548;28;20578;-77
2020/12/22 07:05:05;;;;;;;12.80;12.30;;;13.40;86.80;;;;;;4994099;28;21013;-78
2020/12/22 07:07:56;;;;;;;13.20;12.70;;;13.40;86.80;;;;;;4994187;28;20476;-78
2020/12/22 07:10:23;;;;;;;12.70;12.20;;;13.40;86.90;;;;;;4994331;28;20462;-78
2020/12/22 07:12:51;;;;;;;13.17;12.67;;;13.40;86.90;;;;;;4994279;28;20450;-78
2020/12/22 07:15:19;;;;;;;13.10;12.60;;;13.40;86.70;;;;;;4994405;28;20458;-78
2020/12/22 07:17:45;;;;;;;13.87;13.27;;;13.40;86.30;;;;;;4998329;28;20457;-78
2020/12/22 07:20:12;;;;;;;13.70;12.87;;;13.40;86.60;;;;;;4995207;28;20449;-78
2020/12/22 07:22:39;;;;;;;12.40;11.90;;;13.40;86.40;;;;;;4993991;28;20462;-78
2020/12/22 07:25:06;;;;;;;12.67;12.07;;;13.40;86.70;;;;;;4994133;28;20545;-78
2020/12/22 07:27:32;;;;;;;13.60;12.90;;;13.50;86.30;;;;;;4993946;28;20461;-78
2020/12/22 07:30:00;;;;;;;12.70;12.20;;;13.50;86.20;;;;;;4996583;28;20469;-78
2020/12/22 07:32:26;;;;;;;13.97;13.37;;;13.60;85.70;;;;;;4999825;28;20517;-78
2020/12/22 07:34:53;;;;;;;13.47;12.87;;;13.60;85.60;;;;;;4998141;28;20479;-78
2020/12/22 07:37:19;;;;;;;15.33;14.10;;;13.60;85.60;;;;;;4993478;28;20850;-78
2020/12/22 07:39:45;;;;;;;14.50;13.90;;;13.60;85.40;;;;;;4994231;28;20454;-78
2020/12/22 07:42:13;;;;;;;13.77;12.70;;;13.70;85.00;;;;;;4993643;28;20460;-78
2020/12/22 07:44:41;;;;;;;14.77;13.73;;;13.80;84.60;;;;;;4993756;28;20454;-78
2020/12/22 07:47:09;;;;;;;14.57;13.80;;;13.80;84.30;;;;;;4993192;28;20836;-78
2020/12/22 07:49:36;;;;;;;13.33;12.73;;;13.80;84.20;;;;;;4993343;28;20533;-78
2020/12/22 07:52:03;;;;;;;13.23;12.53;;;13.90;84.00;;;;;;4993399;28;20454;-78
2020/12/22 07:54:29;;;;;;;14.33;13.37;;;13.90;84.10;;;;;;4993704;28;20477;-78
2020/12/22 07:56:58;;;;;;;14.97;14.07;;;13.80;84.10;;;;;;4993367;28;20906;-78
2020/12/22 07:59:25;;;;;;;13.97;13.37;;;13.90;83.80;;;;;;4993846;28;20465;-78
2020/12/22 08:01:52;;;;;;;14.60;14.00;;;14.00;83.50;;;;;;4993513;28;20541;-78
2020/12/22 08:04:21;;;;;;;13.33;12.83;;;13.90;83.50;;;;;;4994391;28;20462;-78
2020/12/22 08:06:58;;;;;;;15.23;14.50;;;14.00;83.50;;;;;;4992967;28;20871;-78
2020/12/22 08:09:25;;;;;;;15.40;14.40;;;14.00;83.40;;;;;;4993585;28;20452;-78
2020/12/22 08:12:01;;;;;;;13.43;12.93;;;14.00;83.10;;;;;;4993420;28;20457;-78
2020/12/22 08:14:28;;;;;;;14.20;13.60;;;14.00;83.30;;;;;;4993134;28;20481;-78
2020/12/22 08:16:59;;;;;;;13.93;13.33;;;14.00;83.40;;;;;;4993119;28;20991;-77
2020/12/22 08:19:29;;;;;;;15.37;14.57;;;14.00;83.40;;;;;;4993495;28;20460;-77
2020/12/22 08:21:56;;;;;;;14.20;13.50;;;14.10;83.20;;;;;;4993587;28;20445;-77
2020/12/22 08:24:24;;;;;;;15.07;14.40;;;14.10;83.40;;;;;;4992824;28;20901;-78
2020/12/22 08:26:51;;;;;;;15.57;14.87;;;14.10;83.40;;;;;;4993260;28;20500;-78
2020/12/22 08:29:19;;;;;;;15.07;14.27;;;14.20;83.00;;;;;;4993209;28;20442;-78
2020/12/22 08:31:46;;;;;;;15.47;14.60;;;14.20;82.90;;;;;;4993325;28;20458;-78
2020/12/22 08:34:16;;;;;;;14.30;13.70;;;14.20;83.00;;;;;;4993128;28;20477;-78
2020/12/22 08:36:45;;;;;;;15.90;15.10;;;14.20;83.00;;;;;;4992699;28;20485;-78
2020/12/22 08:39:13;;;;;;;21.53;16.90;;;14.20;83.10;;;;;;4993334;28;20966;-78
2020/12/22 08:41:41;;;;;;;15.10;14.40;;;14.20;83.10;;;;;;4993236;28;20588;-78
2020/12/22 08:44:09;;;;;;;15.50;14.53;;;14.20;83.10;;;;;;4992977;28;20466;-78
2020/12/22 08:46:37;;;;;;;16.47;15.77;;;14.30;82.80;;;;;;4992820;28;20471;-78
2020/12/22 08:49:11;;;;;;;15.63;14.93;;;14.30;83.10;;;;;;4993124;28;20462;-78
2020/12/22 08:51:37;;;;;;;15.87;14.90;;;14.30;83.00;;;;;;4993372;28;20458;-78
2020/12/22 08:54:05;;;;;;;16.47;14.90;;;14.30;82.80;;;;;;4993175;28;20569;-78
2020/12/22 08:56:32;;;;;;;16.57;15.70;;;14.40;82.60;;;;;;4992999;28;20466;-78
2020/12/22 08:59:00;;;;;;;17.40;16.20;;;14.40;82.50;;;;;;4993199;28;21037;-78
2020/12/22 09:01:28;;;;;;;17.50;16.43;;;14.50;82.20;;;;;;4997370;28;20465;-78
2020/12/22 09:03:59;;;;;;;16.47;15.77;;;14.60;81.90;;;;;;4996863;28;20466;-78
2020/12/22 09:06:37;;;;;;;18.13;16.80;;;14.60;81.60;;;;;;4986013;28;20481;-78
2020/12/22 09:09:06;;;;;;;16.03;15.30;;;14.60;81.90;;;;;;4997044;28;20457;-78
2020/12/22 09:11:33;;;;;;;16.50;15.60;;;14.60;82.50;;;;;;4977676;28;20802;-78
2020/12/22 09:14:01;;;;;;;16.93;16.03;;;14.70;82.50;;;;;;4982602;28;21244;-78
2020/12/22 09:16:49;;;;;;;17.83;16.40;;;14.60;82.80;;;;;;5001911;28;20492;-78
2020/12/22 09:19:16;;;;;;;17.10;16.40;;;14.70;82.70;;;;;;4996295;28;20450;-77
2020/12/22 09:21:43;;;;;;;15.83;15.13;;;14.60;82.80;;;;;;4996679;28;20454;-78
2020/12/22 09:24:16;;;;;;;15.53;14.80;;;14.60;82.60;;;;;;4996264;28;20812;-78
2020/12/22 09:26:59;;;;;;;15.20;14.40;;;14.60;82.90;;;;;;4996206;28;20556;-78
2020/12/22 09:29:26;;;;;;;15.23;14.50;;;14.60;83.30;;;;;;4996545;28;20504;-78
2020/12/22 09:31:53;;;;;;;17.90;16.07;;;14.60;83.40;;;;;;4996586;28;20449;-77
2020/12/22 09:34:20;;;;;;;15.93;15.23;;;14.60;83.60;;;;;;4996020;28;20528;-78
2020/12/22 09:36:55;;;;;;;14.60;14.00;;;14.60;83.90;;;;;;4995308;28;20563;-78
2020/12/22 09:39:25;;;;;;;14.63;13.90;;;14.60;84.20;;;;;;4996268;28;20460;-78
2020/12/22 09:41:52;;;;;;;14.20;13.60;;;14.50;84.80;;;;;;4996141;28;20454;-77
2020/12/22 09:44:19;;;;;;;15.67;14.57;;;14.50;84.80;;;;;;4996135;28;20987;-77
2020/12/22 09:46:49;;;;;;;16.13;14.80;;;14.40;85.50;;;;;;4995822;28;20470;-77
2020/12/22 09:49:16;;;;;;;15.40;14.67;;;14.40;85.50;;;;;;4996146;28;20943;-78
2020/12/22 09:51:42;;;;;;;14.40;13.80;;;14.40;85.50;;;;;;4995920;28;20456;-78
2020/12/22 09:54:09;;;;;;;13.80;13.20;;;14.50;85.20;;;;;;4996069;28;20478;-78
2020/12/22 09:56:36;;;;;;;15.00;14.10;;;14.60;85.10;;;;;;4995592;28;20472;-78
2020/12/22 09:59:03;;;;;;;13.70;13.20;;;14.50;85.40;;;;;;4995859;28;20453;-78
2020/12/22 10:01:29;;;;;;;15.43;14.40;;;14.60;85.30;;;;;;4995826;28;20461;-78
2020/12/22 10:03:56;;;;;;;14.13;13.53;;;14.70;84.40;;;;;;4995570;28;20450;-78
2020/12/22 10:06:24;;;;;;;14.80;14.10;;;14.80;84.00;;;;;;4995396;28;20817;-78
2020/12/22 10:08:51;;;;;;;15.20;14.40;;;14.80;84.00;;;;;;4995763;28;20455;-77
2020/12/22 10:11:19;;;;;;;15.10;14.50;;;14.70;84.10;;;;;;4995309;28;20454;-78
2020/12/22 10:13:46;;;;;;;16.33;15.63;;;14.80;83.80;;;;;;4995346;28;20505;-78
2020/12/22 10:16:15;;;;;;;16.50;15.60;;;14.80;83.40;;;;;;4994652;28;20466;-78
2020/12/22 10:18:41;;;;;;;16.43;15.73;;;14.90;83.10;;;;;;4995511;28;20454;-78
2020/12/22 10:21:09;;;;;;;16.10;15.20;;;15.00;82.80;;;;;;4995334;28;20458;-77
2020/12/22 10:23:36;;;;;;;16.40;15.60;;;15.00;82.20;;;;;;4995559;28;20454;-78
2020/12/22 10:26:03;;;;;;;17.40;16.50;;;15.10;82.20;;;;;;4994801;28;20467;-78
2020/12/22 10:28:30;;;;;;;16.30;15.50;;;15.10;81.70;;;;;;4995404;28;20457;-78
2020/12/22 10:30:58;;;;;;;17.20;16.40;;;15.20;81.40;;;;;;4995336;28;20454;-78
2020/12/22 10:33:25;;;;;;;19.47;17.97;;;15.30;80.90;;;;;;4995445;28;20458;-78
2020/12/22 10:35:52;;;;;;;17.70;16.90;;;15.30;80.90;;;;;;4995456;28;20477;-78
2020/12/22 10:38:18;;;;;;;17.30;16.40;;;15.30;80.50;;;;;;4999818;28;20537;-78
2020/12/22 10:40:44;;;;;;;17.50;16.70;;;15.40;80.20;;;;;;5005126;28;20832;-78
2020/12/22 10:43:11;;;;;;;18.70;17.70;;;15.40;80.20;;;;;;5003609;28;20451;-78
2020/12/22 10:45:38;;;;;;;18.80;17.63;;;15.40;80.10;;;;;;4995458;28;20482;-78
2020/12/22 10:48:06;;;;;;;19.60;18.40;;;15.40;79.90;;;;;;4995487;28;20454;-78
2020/12/22 10:50:33;;;;;;;18.43;17.13;;;15.50;79.70;;;;;;4995013;28;20458;-78
2020/12/22 10:52:59;;;;;;;17.93;17.13;;;15.50;79.80;;;;;;4995276;28;21033;-78
2020/12/22 10:55:25;;;;;;;20.47;19.27;;;15.60;79.60;;;;;;4994611;28;20482;-78
2020/12/22 10:57:52;;;;;;;17.47;16.57;;;15.50;79.60;;;;;;4995038;28;20460;-78
2020/12/22 11:00:18;;;;;;;18.00;17.20;;;15.50;79.40;;;;;;4994773;28;20548;-79
2020/12/22 11:02:45;;;;;;;18.00;17.20;;;15.50;79.50;;;;;;4994768;28;20450;-78
2020/12/22 11:05:13;;;;;;;17.30;16.30;;;15.50;79.40;;;;;;4994728;28;20968;-78
2020/12/22 11:07:43;;;;;;;17.37;16.57;;;15.50;79.70;;;;;;4995215;28;20577;-78
2020/12/22 11:10:10;;;;;;;17.37;16.67;;;15.40;79.80;;;;;;5002525;28;20496;-78
2020/12/22 11:12:36;;;;;;;17.27;16.37;;;15.50;79.70;;;;;;5001397;28;20462;-78
2020/12/22 11:15:03;;;;;;;17.50;16.70;;;15.50;79.70;;;;;;4994462;28;20505;-78
2020/12/22 11:17:29;;;;;;;18.17;17.00;;;15.40;79.80;;;;;;4994326;28;20454;-78
2020/12/22 11:19:56;;;;;;;18.13;17.23;;;15.50;79.50;;;;;;4994991;28;20462;-78
2020/12/22 11:22:23;;;;;;;18.77;17.83;;;15.50;79.60;;;;;;4995101;28;20450;-78
2020/12/22 11:24:49;;;;;;;17.40;16.60;;;15.50;79.80;;;;;;4994209;28;20873;-78
2020/12/22 11:27:16;;;;;;;17.60;16.73;;;15.50;79.80;;;;;;4993838;28;20975;-78
2020/12/22 11:29:43;;;;;;;18.57;17.67;;;15.40;79.80;;;;;;4993988;28;20456;-78
2020/12/22 11:32:10;;;;;;;17.60;16.80;;;15.50;79.70;;;;;;4994134;28;20567;-77
2020/12/22 11:34:36;;;;;;;17.70;16.80;;;15.60;79.70;;;;;;4993960;28;20475;-78
2020/12/22 11:37:03;;;;;;;16.93;16.13;;;15.60;79.60;;;;;;4993791;28;20469;-78
2020/12/22 11:39:31;;;;;;;16.90;16.20;;;15.60;79.50;;;;;;4994358;28;20454;-78
2020/12/22 11:42:01;;;;;;;17.30;16.50;;;15.60;79.90;;;;;;4993883;28;20449;-79
2020/12/22 11:44:27;;;;;;;17.13;16.33;;;15.50;80.30;;;;;;4994339;28;20465;-78
2020/12/22 11:46:54;;;;;;;17.63;16.73;;;15.40;80.50;;;;;;4993715;28;20536;-78
2020/12/22 11:49:20;;;;;;;16.90;16.10;;;15.40;80.50;;;;;;4993954;28;20464;-78
2020/12/22 11:51:47;;;;;;;16.50;15.80;;;15.40;81.10;;;;;;4993474;28;20812;-78
2020/12/22 11:54:13;;;;;;;17.50;16.70;;;15.30;81.10;;;;;;4994282;28;20851;-78
2020/12/22 11:56:40;;;;;;;17.50;16.70;;;15.30;81.40;;;;;;4995224;28;20513;-78
2020/12/22 11:59:06;;;;;;;16.87;16.10;;;15.40;81.10;;;;;;4993811;28;20454;-78
2020/12/22 12:01:33;;;;;;;16.40;15.70;;;15.40;81.20;;;;;;4993620;28;20449;-78
2020/12/22 12:03:59;;;;;;;16.60;15.80;;;15.40;81.10;;;;;;4993172;28;20457;-78
2020/12/22 12:06:26;;;;;;;16.87;16.07;;;15.40;80.90;;;;;;4993130;28;20500;-78
2020/12/22 12:08:52;;;;;;;16.30;15.60;;;15.50;80.70;;;;;;4993610;28;20533;-78
2020/12/22 12:11:18;;;;;;;20.17;18.27;;;15.50;80.80;;;;;;4993100;28;20454;-78
2020/12/22 12:13:45;;;;;;;17.50;16.43;;;15.60;80.80;;;;;;4993411;28;20482;-78
2020/12/22 12:16:16;;;;;;;17.50;16.50;;;15.70;80.40;;;;;;4992919;28;20470;-78
2020/12/22 12:18:43;;;;;;;18.27;17.00;;;15.70;80.10;;;;;;4993421;28;20816;-78
2020/12/22 12:21:13;;;;;;;18.77;17.10;;;15.70;80.50;;;;;;4993510;28;20552;-78
2020/12/22 12:23:39;;;;;;;18.07;17.07;;;15.70;80.30;;;;;;4992911;28;20454;-78
2020/12/22 12:26:06;;;;;;;17.30;16.50;;;15.80;80.30;;;;;;4992898;28;20570;-78
2020/12/22 12:28:32;;;;;;;17.00;16.20;;;15.80;80.30;;;;;;4993189;28;20458;-78
2020/12/22 12:30:59;;;;;;;18.73;17.73;;;15.90;80.10;;;;;;4993475;28;20470;-78